Nisku, Canada
Current Conditions -  °F | °C
As of 10:00 AM on Saturday 25 Oct 2014 (Local Time) from CYEG Reporting Station
Broken Clouds Broken Clouds  
Wind Chill: 34°   Ceiling: 22000
Heat Index: 34°   Visibility: 15mi
Dew Point: 27°   Wind: 2mph
Humidity: 75%   Direction: NA
Pressure: 29.96"   Gusts: NA
Location:  53.33°N, 113.53°W
Report Text: CYEG 251600Z VRB02KT 15SM FEW140 SCT160 BKN220 BKN260 01/M03 A2996 RMK AC1AC3CI2CI2 AC TR SLP180
Loading
Personal Weather Stations






























Interactive Weather Map
Tropical Storm Tracking
New forecast layout! Learn more

10-Day Weather Forecast

Advertisements
Track Severe Weather on mobile